createdAt,value
2019-03-20T00:00:38.805Z,2.04
2019-03-20T00:03:48.244Z,1.99
2019-03-20T00:06:59.302Z,2.00
2019-03-20T00:10:08.720Z,2.04
2019-03-20T00:13:16.443Z,1.75
2019-03-20T00:16:25.114Z,2.06
2019-03-20T00:19:33.746Z,1.78
2019-03-20T00:22:43.096Z,2.46
2019-03-20T00:25:55.724Z,2.54
2019-03-20T00:29:05.000Z,2.51
2019-03-20T00:32:13.092Z,2.42
2019-03-20T00:35:21.382Z,2.52
2019-03-20T00:38:29.322Z,2.55
2019-03-20T00:41:37.372Z,2.40
2019-03-20T00:44:45.178Z,1.72
2019-03-20T00:47:53.861Z,2.06
2019-03-20T00:51:04.180Z,1.96
2019-03-20T00:54:12.100Z,2.34
2019-03-20T00:57:20.940Z,1.85
2019-03-20T01:00:30.041Z,1.84
2019-03-20T01:03:38.142Z,2.08
2019-03-20T01:06:47.821Z,2.28
2019-03-20T01:09:56.266Z,1.94
2019-03-20T01:13:04.850Z,1.68
2019-03-20T01:16:13.296Z,2.04
2019-03-20T01:19:24.840Z,1.67
2019-03-20T01:22:33.709Z,2.15
2019-03-20T01:25:42.288Z,2.10
2019-03-20T01:28:50.431Z,2.02
2019-03-20T01:31:58.886Z,2.02
2019-03-20T01:35:07.001Z,2.01
2019-03-20T01:38:15.214Z,2.07
2019-03-20T01:41:23.669Z,1.82
2019-03-20T01:44:31.936Z,1.34
2019-03-20T01:47:40.576Z,1.34
2019-03-20T01:50:49.025Z,0.83
2019-03-20T01:53:58.079Z,1.32
2019-03-20T01:57:07.097Z,1.13
2019-03-20T02:00:17.246Z,0.92
2019-03-20T02:03:25.806Z,0.76
2019-03-20T02:06:33.846Z,0.20
2019-03-20T02:09:42.402Z,1.02
2019-03-20T02:12:51.532Z,0.78
2019-03-20T02:16:03.643Z,0.82
2019-03-20T02:19:13.289Z,0.47
2019-03-20T02:22:21.209Z,0.60
2019-03-20T02:25:29.218Z,0.59
2019-03-20T02:28:37.360Z,0.68
2019-03-20T02:31:45.455Z,0.17
2019-03-20T02:34:53.665Z,0.71
2019-03-20T02:38:08.555Z,0.34
2019-03-20T02:41:18.413Z,-0.22
2019-03-20T02:44:27.852Z,-0.47
2019-03-20T02:47:37.740Z,-0.02
2019-03-20T02:50:47.841Z,0.16
2019-03-20T02:53:56.039Z,-0.01
2019-03-20T02:57:04.104Z,-0.46
2019-03-20T03:00:14.849Z,-0.42
2019-03-20T03:03:23.836Z,-0.41
2019-03-20T03:06:31.770Z,-0.01
2019-03-20T03:09:40.937Z,-0.08
2019-03-20T03:12:49.135Z,-0.49
2019-03-20T03:15:57.422Z,-0.63
2019-03-20T03:19:05.396Z,-0.24
2019-03-20T03:22:13.534Z,-0.67
2019-03-20T03:25:22.290Z,-0.60
2019-03-20T03:28:33.405Z,-0.95
2019-03-20T03:31:42.594Z,-0.13
2019-03-20T03:34:50.872Z,-0.36
2019-03-20T03:38:00.883Z,-0.18
2019-03-20T03:41:10.062Z,-0.33
2019-03-20T03:44:18.326Z,-0.56
2019-03-20T03:47:26.409Z,-0.75
2019-03-20T03:50:34.472Z,-0.60
2019-03-20T03:53:42.327Z,-0.34
2019-03-20T03:56:52.057Z,-0.16
2019-03-20T04:00:00.477Z,-0.26
2019-03-20T04:03:09.788Z,0.04
2019-03-20T04:06:19.598Z,-0.03
2019-03-20T04:09:30.306Z,-0.11
2019-03-20T04:12:37.864Z,0.09
2019-03-20T04:15:47.718Z,0.00
2019-03-20T04:18:56.028Z,-0.33
2019-03-20T04:22:08.512Z,-0.31
2019-03-20T04:25:16.460Z,-0.25
2019-03-20T04:28:24.691Z,-0.21
2019-03-20T04:31:34.260Z,-0.40
2019-03-20T04:34:44.971Z,-0.59
2019-03-20T04:37:53.042Z,-0.48
2019-03-20T04:41:00.958Z,-0.20
2019-03-20T04:44:08.846Z,-0.19
2019-03-20T04:47:17.378Z,-0.37
2019-03-20T04:50:25.589Z,-0.38
2019-03-20T04:53:34.241Z,-0.70
2019-03-20T04:56:42.946Z,-0.75
2019-03-20T04:59:51.315Z,-0.29
2019-03-20T05:03:01.075Z,-0.13
2019-03-20T05:06:09.584Z,-0.19
2019-03-20T05:09:18.279Z,-0.19
2019-03-20T05:12:27.646Z,-0.08
2019-03-20T05:15:35.559Z,0.01
2019-03-20T05:18:45.162Z,-0.05
2019-03-20T05:21:53.450Z,0.11
2019-03-20T05:25:02.971Z,0.05
2019-03-20T05:28:13.822Z,0.11
2019-03-20T05:31:22.496Z,0.10
2019-03-20T05:34:30.632Z,0.19
2019-03-20T05:37:38.859Z,0.09
2019-03-20T05:40:47.059Z,0.14
2019-03-20T05:43:55.613Z,-0.13
2019-03-20T05:47:10.143Z,-0.01
2019-03-20T05:50:18.326Z,-0.02
2019-03-20T05:53:26.284Z,0.14
2019-03-20T05:56:36.190Z,0.08
2019-03-20T05:59:44.603Z,0.19
2019-03-20T06:02:53.271Z,0.22
2019-03-20T06:06:01.593Z,0.23
2019-03-20T06:09:11.521Z,0.41
2019-03-20T06:12:21.454Z,0.45
2019-03-20T06:15:29.707Z,0.58
2019-03-20T06:18:37.958Z,0.67
2019-03-20T06:21:46.035Z,0.64
2019-03-20T06:24:53.914Z,0.72
2019-03-20T06:28:02.130Z,0.77
2019-03-20T06:31:10.118Z,0.85
2019-03-20T06:34:18.468Z,0.94
2019-03-20T06:37:32.637Z,0.97
2019-03-20T06:40:35.970Z,0.99
2019-03-20T06:43:43.888Z,1.09
2019-03-20T06:46:51.855Z,1.16
2019-03-20T06:50:02.743Z,1.27
2019-03-20T06:53:11.367Z,1.38
2019-03-20T06:56:19.333Z,1.48
2019-03-20T07:00:22.499Z,1.62
2019-03-20T07:03:42.311Z,1.67
2019-03-20T07:07:17.801Z,1.80
2019-03-20T07:11:16.615Z,1.92
2019-03-20T07:14:25.560Z,2.08
2019-03-20T07:17:33.446Z,2.25
2019-03-20T07:20:41.255Z,2.35
2019-03-20T07:23:49.760Z,2.56
2019-03-20T07:26:58.281Z,2.70
2019-03-20T07:30:10.024Z,2.76
2019-03-20T07:33:18.393Z,3.00
2019-03-20T07:36:26.914Z,3.06
2019-03-20T07:39:35.502Z,3.26
2019-03-20T07:42:44.711Z,3.34
2019-03-20T07:45:55.605Z,3.45
2019-03-20T07:49:06.797Z,3.47
2019-03-20T07:52:14.924Z,3.53
2019-03-20T07:55:25.670Z,3.56
2019-03-20T07:58:33.834Z,3.80
2019-03-20T08:01:41.877Z,3.93
2019-03-20T08:04:49.806Z,3.95
2019-03-20T08:08:07.246Z,4.14
2019-03-20T08:11:11.181Z,4.19
2019-03-20T08:14:22.488Z,4.17
2019-03-20T08:17:34.539Z,4.39
2019-03-20T08:20:42.548Z,4.70
2019-03-20T08:23:51.093Z,4.88
2019-03-20T08:27:00.999Z,5.02
2019-03-20T08:30:13.704Z,5.13
2019-03-20T08:33:21.589Z,5.24
2019-03-20T08:36:29.752Z,5.26
2019-03-20T08:39:39.091Z,5.56
2019-03-20T08:42:49.170Z,5.62
2019-03-20T08:46:02.339Z,5.99
2019-03-20T08:49:11.682Z,6.05
2019-03-20T08:52:21.283Z,6.02
2019-03-20T08:55:29.372Z,6.18
2019-03-20T08:58:37.742Z,6.21
2019-03-20T09:01:45.728Z,6.35
2019-03-20T09:04:54.001Z,6.31
2019-03-20T09:08:03.244Z,6.71
2019-03-20T09:11:11.154Z,6.57
2019-03-20T09:14:19.280Z,6.39
2019-03-20T09:17:27.568Z,6.68
2019-03-20T09:20:40.007Z,6.64
2019-03-20T09:23:47.940Z,6.80
2019-03-20T09:26:56.096Z,6.93
2019-03-20T09:30:04.720Z,6.96
2019-03-20T09:33:13.006Z,7.25
2019-03-20T09:36:20.961Z,7.41
2019-03-20T09:39:29.104Z,7.47
2019-03-20T09:42:36.983Z,7.44
2019-03-20T09:45:45.017Z,7.51
2019-03-20T09:48:54.042Z,7.17
2019-03-20T09:52:02.152Z,7.49
2019-03-20T09:55:10.544Z,7.48
2019-03-20T09:58:18.579Z,7.46
2019-03-20T10:01:26.923Z,7.51
2019-03-20T10:04:34.983Z,7.50
2019-03-20T10:07:44.364Z,7.41
2019-03-20T10:10:53.233Z,8.04
2019-03-20T10:14:01.060Z,7.68
2019-03-20T10:17:09.312Z,7.85
2019-03-20T10:20:19.670Z,8.10
2019-03-20T10:23:29.380Z,7.84
2019-03-20T10:26:37.378Z,8.21
2019-03-20T10:29:45.443Z,8.47
2019-03-20T10:32:54.257Z,7.86
2019-03-20T10:36:02.493Z,8.36
2019-03-20T10:39:11.952Z,8.24
2019-03-20T10:42:19.985Z,8.47
2019-03-20T10:45:28.679Z,8.59
2019-03-20T10:48:39.328Z,8.28
2019-03-20T10:51:47.613Z,8.78
2019-03-20T10:54:55.789Z,9.25
2019-03-20T10:58:03.557Z,8.79
2019-03-20T11:01:11.634Z,8.97
2019-03-20T11:04:19.961Z,8.90
2019-03-20T11:07:28.213Z,8.80
2019-03-20T11:10:36.635Z,9.24
2019-03-20T11:13:47.185Z,9.30
2019-03-20T11:16:56.844Z,8.80
2019-03-20T11:20:45.224Z,8.95
2019-03-20T11:23:54.860Z,9.12
2019-03-20T11:27:06.506Z,9.58
2019-03-20T11:30:25.729Z,9.74
2019-03-20T11:33:34.064Z,9.60
2019-03-20T11:36:42.254Z,9.81
2019-03-20T11:39:52.630Z,9.32
2019-03-20T11:43:03.719Z,9.35
2019-03-20T11:46:12.171Z,9.58
2019-03-20T11:49:21.020Z,9.25
2019-03-20T11:52:29.561Z,9.78
2019-03-20T11:55:38.211Z,9.19
2019-03-20T11:58:46.670Z,9.42
2019-03-20T12:01:54.671Z,9.69
2019-03-20T12:05:03.255Z,10.09
2019-03-20T12:08:11.383Z,10.16
2019-03-20T12:11:20.280Z,10.34
2019-03-20T12:14:30.635Z,10.67
2019-03-20T12:17:39.010Z,10.11
2019-03-20T12:20:47.620Z,10.73
2019-03-20T12:23:56.255Z,9.79
2019-03-20T12:27:14.760Z,10.87
2019-03-20T12:30:19.736Z,9.09
2019-03-20T12:33:27.889Z,10.88
2019-03-20T12:36:36.121Z,10.84
2019-03-20T12:39:52.799Z,10.79
2019-03-20T12:42:54.012Z,10.74
2019-03-20T12:46:03.792Z,10.89
2019-03-20T12:49:12.285Z,10.70
2019-03-20T12:52:20.634Z,10.61
2019-03-20T12:55:30.953Z,10.81
2019-03-20T12:58:38.499Z,11.02
2019-03-20T13:01:46.747Z,11.38
2019-03-20T13:04:54.811Z,10.95
2019-03-20T13:08:06.037Z,11.42
2019-03-20T13:11:12.897Z,11.86
2019-03-20T13:14:21.595Z,11.11
2019-03-20T13:17:29.374Z,10.65
2019-03-20T13:20:37.635Z,10.81
2019-03-20T13:23:45.741Z,10.76
2019-03-20T13:26:54.482Z,10.56
2019-03-20T13:30:02.885Z,10.75
2019-03-20T13:33:11.011Z,11.74
2019-03-20T13:36:18.947Z,12.01
2019-03-20T13:39:27.411Z,11.82
2019-03-20T13:42:35.498Z,11.84
2019-03-20T13:45:43.665Z,11.83
2019-03-20T13:48:51.786Z,10.89
2019-03-20T13:52:01.044Z,11.10
2019-03-20T13:55:09.479Z,11.64
2019-03-20T13:58:17.775Z,12.82
2019-03-20T14:01:28.009Z,12.66
2019-03-20T14:04:36.322Z,12.34
2019-03-20T14:07:45.653Z,12.60
2019-03-20T14:10:54.715Z,12.19
2019-03-20T14:14:03.137Z,11.93
2019-03-20T14:17:11.590Z,11.74
2019-03-20T14:20:23.556Z,11.79
2019-03-20T14:23:31.627Z,11.85
2019-03-20T14:26:39.733Z,11.32
2019-03-20T14:29:49.202Z,12.10
2019-03-20T14:32:57.594Z,12.01
2019-03-20T14:36:05.417Z,12.37
2019-03-20T14:39:13.353Z,12.52
2019-03-20T14:42:21.645Z,12.99
2019-03-20T14:45:29.915Z,12.83
2019-03-20T14:48:38.141Z,12.23
2019-03-20T14:51:46.413Z,12.37
2019-03-20T14:54:56.367Z,11.73
2019-03-20T14:58:04.446Z,12.13
2019-03-20T15:01:12.611Z,12.11
2019-03-20T15:04:20.707Z,11.93
2019-03-20T15:07:28.796Z,12.52
2019-03-20T15:10:45.715Z,12.31
2019-03-20T15:13:46.974Z,12.26
2019-03-20T15:16:55.220Z,12.09
2019-03-20T15:20:03.570Z,11.96
2019-03-20T15:23:11.760Z,11.79
2019-03-20T15:26:20.566Z,11.35
2019-03-20T15:29:29.241Z,11.45
2019-03-20T15:32:37.439Z,11.46
2019-03-20T15:35:46.148Z,11.51
2019-03-20T15:38:54.111Z,11.32
2019-03-20T15:42:03.195Z,11.18
2019-03-20T15:45:16.392Z,11.14
2019-03-20T15:48:24.785Z,11.14
2019-03-20T15:51:34.225Z,10.90
2019-03-20T15:54:43.173Z,10.98
2019-03-20T15:57:51.560Z,10.87
2019-03-20T16:00:59.819Z,10.73
2019-03-20T16:04:09.495Z,10.79
2019-03-20T16:07:17.919Z,11.08
2019-03-20T16:10:25.963Z,10.86
2019-03-20T16:13:34.378Z,10.65
2019-03-20T16:16:42.527Z,10.53
2019-03-20T16:19:52.184Z,10.38
2019-03-20T16:22:59.656Z,10.50
2019-03-20T16:26:06.864Z,10.35
2019-03-20T16:29:14.104Z,10.46
2019-03-20T16:32:21.272Z,10.35
2019-03-20T16:35:28.859Z,10.21
2019-03-20T16:38:35.822Z,9.96
2019-03-20T16:41:43.002Z,9.88
2019-03-20T16:44:50.012Z,9.92
2019-03-20T16:47:57.471Z,9.81
2019-03-20T16:51:07.355Z,9.53
2019-03-20T16:54:14.369Z,9.54
2019-03-20T16:57:21.921Z,9.17
2019-03-20T17:00:31.239Z,8.64
2019-03-20T17:03:38.488Z,8.84
2019-03-20T17:06:48.218Z,8.50
2019-03-20T17:09:55.121Z,8.44
2019-03-20T17:13:02.849Z,8.56
2019-03-20T17:16:09.685Z,8.04
2019-03-20T17:19:16.614Z,7.57
2019-03-20T17:22:23.433Z,7.36
2019-03-20T17:25:30.835Z,7.35
2019-03-20T17:28:37.693Z,6.91
2019-03-20T17:31:44.571Z,6.83
2019-03-20T17:34:53.533Z,6.64
2019-03-20T17:38:04.740Z,6.32
2019-03-20T17:41:11.632Z,6.48
2019-03-20T17:44:18.552Z,6.61
2019-03-20T17:47:25.423Z,6.38
2019-03-20T17:50:32.506Z,6.24
2019-03-20T17:53:39.518Z,5.87
2019-03-20T17:56:46.438Z,5.86
2019-03-20T17:59:55.294Z,6.10
2019-03-20T18:03:05.087Z,6.45
2019-03-20T18:06:12.164Z,6.50
2019-03-20T18:09:19.096Z,6.45
2019-03-20T18:12:25.946Z,5.68
2019-03-20T18:15:32.844Z,4.91
2019-03-20T18:18:39.687Z,5.87
2019-03-20T18:21:46.604Z,4.40
2019-03-20T18:24:53.691Z,4.19
2019-03-20T18:28:00.595Z,5.03
2019-03-20T18:31:07.511Z,5.34
2019-03-20T18:34:14.851Z,5.40
2019-03-20T18:37:22.016Z,5.22
2019-03-20T18:40:29.058Z,5.08
2019-03-20T18:43:35.896Z,4.95
2019-03-20T18:46:42.860Z,5.09
2019-03-20T18:49:49.894Z,4.06
2019-03-20T18:52:56.791Z,4.26
2019-03-20T18:56:03.759Z,4.82
2019-03-20T18:59:10.735Z,4.96
2019-03-20T19:02:18.579Z,4.76
2019-03-20T19:05:33.457Z,4.16
2019-03-20T19:08:40.287Z,3.38
2019-03-20T19:11:47.463Z,4.16
2019-03-20T19:14:54.375Z,3.45
2019-03-20T19:18:01.257Z,3.30
2019-03-20T19:21:09.184Z,3.25
2019-03-20T19:24:16.117Z,3.50
2019-03-20T19:27:23.010Z,3.87
2019-03-20T19:30:30.044Z,3.31
2019-03-20T19:33:36.893Z,3.96
2019-03-20T19:36:43.791Z,4.09
2019-03-20T19:39:50.759Z,4.23
2019-03-20T19:43:01.862Z,4.00
2019-03-20T19:46:08.697Z,4.35
2019-03-20T19:49:15.547Z,4.51
2019-03-20T19:52:22.570Z,4.58
2019-03-20T19:55:29.616Z,4.59
2019-03-20T19:58:36.598Z,4.60
2019-03-20T20:01:43.534Z,4.63
2019-03-20T20:04:53.144Z,4.24
2019-03-20T20:08:00.165Z,4.50
2019-03-20T20:11:07.153Z,4.26
2019-03-20T20:14:14.109Z,4.52
2019-03-20T20:17:20.997Z,4.51
2019-03-20T20:20:28.063Z,4.58
2019-03-20T20:23:34.891Z,4.66
2019-03-20T20:26:41.827Z,4.53
2019-03-20T20:29:49.870Z,4.42
2019-03-20T20:32:56.733Z,4.48
2019-03-20T20:36:03.659Z,3.88
2019-03-20T20:39:13.480Z,3.95
2019-03-20T20:42:20.323Z,4.10
2019-03-20T20:45:28.921Z,3.92
2019-03-20T20:48:35.790Z,3.93
2019-03-20T20:51:44.827Z,3.58
2019-03-20T20:54:53.514Z,3.48
2019-03-20T20:58:02.278Z,3.93
2019-03-20T21:01:10.352Z,4.07
2019-03-20T21:04:18.740Z,3.89
2019-03-20T21:07:32.334Z,3.95
2019-03-20T21:10:40.820Z,3.85
2019-03-20T21:13:49.392Z,3.90
2019-03-20T21:16:58.609Z,3.57
2019-03-20T21:20:07.810Z,4.01
2019-03-20T21:24:10.380Z,3.75
2019-03-20T21:28:21.732Z,3.70
2019-03-20T21:31:46.588Z,3.79
2019-03-20T21:36:03.425Z,3.67
2019-03-20T21:39:14.600Z,3.79
2019-03-20T21:43:19.921Z,3.94
2019-03-20T21:47:18.244Z,3.82
2019-03-20T21:51:18.198Z,3.59
2019-03-20T21:55:29.029Z,3.79
2019-03-20T21:58:56.697Z,3.71
2019-03-20T22:02:45.652Z,3.79
2019-03-20T22:07:12.772Z,3.52
2019-03-20T22:11:06.235Z,3.68
2019-03-20T22:14:15.494Z,3.39
2019-03-20T22:19:02.530Z,3.40
2019-03-20T22:22:49.323Z,3.24
2019-03-20T22:27:04.854Z,3.45
2019-03-20T22:30:14.095Z,3.31
2019-03-20T22:34:16.953Z,3.21
2019-03-20T22:37:26.404Z,3.27
2019-03-20T22:41:50.859Z,3.24
2019-03-20T22:45:35.007Z,3.24
2019-03-20T22:49:19.141Z,3.15
2019-03-20T22:53:34.981Z,3.04
2019-03-20T22:57:15.893Z,2.84
2019-03-20T23:00:28.471Z,2.93
2019-03-20T23:03:44.450Z,2.91
2019-03-20T23:06:53.704Z,2.95
2019-03-20T23:10:02.915Z,3.08
2019-03-20T23:13:18.770Z,2.93
2019-03-20T23:16:24.688Z,2.97
2019-03-20T23:19:36.737Z,2.96
2019-03-20T23:22:45.983Z,2.70
2019-03-20T23:25:54.997Z,2.63
2019-03-20T23:29:05.813Z,2.73
2019-03-20T23:32:14.911Z,2.65
2019-03-20T23:35:24.628Z,2.65
2019-03-20T23:38:33.667Z,2.43
2019-03-20T23:41:43.990Z,2.55
2019-03-20T23:44:53.461Z,2.57
2019-03-20T23:48:17.188Z,2.64
2019-03-20T23:51:27.635Z,2.54
2019-03-20T23:54:52.362Z,2.52
2019-03-20T23:58:01.208Z,2.44
